Time;durP1;ratioP1;P1;durP2;ratioP2;P2;SDS_P1;SDS_P2;PMS_P1;PMS_P2;Temp;Humidity;BMP_temperature;BMP_pressure;BME280_temperature;BME280_humidity;BME280_pressure;Samples;Min_cycle;Max_cycle;Signal;HPM_P1;HPM_P2
2021/05/29 00:00:56;;;;;;;3.70;3.40;;;16.90;90.00;;;;;;5023675;28;20518;-71
2021/05/29 00:03:23;;;;;;;4.03;3.60;;;16.90;90.30;;;;;;5020407;28;20212;-71
2021/05/29 00:05:50;;;;;;;3.37;3.17;;;16.80;90.30;;;;;;5026126;28;20431;-72
2021/05/29 00:08:15;;;;;;;3.93;3.63;;;16.80;90.40;;;;;;5024646;28;21023;-71
2021/05/29 00:10:46;;;;;;;4.17;3.70;;;16.80;90.50;;;;;;5022394;28;20447;-73
2021/05/29 00:13:12;;;;;;;3.30;3.00;;;16.80;90.50;;;;;;5025297;28;20192;-72
2021/05/29 00:15:40;;;;;;;3.60;3.30;;;16.80;90.70;;;;;;5026242;28;21011;-72
2021/05/29 00:18:07;;;;;;;4.20;3.57;;;16.80;90.80;;;;;;5023780;28;20517;-72
2021/05/29 00:20:34;;;;;;;3.73;3.20;;;16.80;91.00;;;;;;5024790;28;20482;-72
2021/05/29 00:23:00;;;;;;;3.73;3.43;;;16.80;91.20;;;;;;5024189;28;21149;-71
2021/05/29 00:25:26;;;;;;;3.90;3.50;;;16.80;91.30;;;;;;5022077;28;20435;-73
2021/05/29 00:27:51;;;;;;;4.23;3.83;;;16.90;91.40;;;;;;5026510;28;20258;-73
2021/05/29 00:30:18;;;;;;;3.80;3.50;;;16.90;91.50;;;;;;5024925;28;20200;-72
2021/05/29 00:32:43;;;;;;;3.67;3.37;;;16.90;91.70;;;;;;5025482;28;20188;-73
2021/05/29 00:35:09;;;;;;;4.03;3.70;;;16.90;92.00;;;;;;5026915;28;20436;-72
2021/05/29 00:37:36;;;;;;;3.77;3.47;;;16.90;92.10;;;;;;5023273;28;20217;-72
2021/05/29 00:40:07;;;;;;;3.67;3.40;;;16.90;92.10;;;;;;5026705;28;20486;-72
2021/05/29 00:42:33;;;;;;;4.10;3.43;;;16.90;92.20;;;;;;5021995;28;20793;-73
2021/05/29 00:45:00;;;;;;;3.80;3.40;;;17.00;92.50;;;;;;5022398;28;21017;-72
2021/05/29 00:47:28;;;;;;;3.67;3.37;;;16.90;92.60;;;;;;5020170;28;20465;-73
2021/05/29 00:49:57;;;;;;;4.27;3.97;;;17.00;92.90;;;;;;5022505;28;20522;-72
2021/05/29 00:52:23;;;;;;;5.30;3.50;;;17.00;93.00;;;;;;5022297;28;20442;-72
2021/05/29 00:54:50;;;;;;;4.80;4.00;;;17.00;93.00;;;;;;5025879;28;20431;-72
2021/05/29 00:57:17;;;;;;;4.03;3.73;;;17.00;92.90;;;;;;5022948;28;20473;-72
2021/05/29 00:59:43;;;;;;;5.00;4.57;;;17.00;92.80;;;;;;5022778;28;20476;-73
2021/05/29 01:02:11;;;;;;;4.73;4.33;;;17.00;93.40;;;;;;5025643;28;20484;-72
2021/05/29 01:04:38;;;;;;;5.00;4.60;;;17.00;94.30;;;;;;5024694;28;20436;-72
2021/05/29 01:07:09;;;;;;;5.00;4.33;;;17.00;95.00;;;;;;5024533;28;20470;-72
2021/05/29 01:09:39;;;;;;;6.20;4.60;;;17.00;95.50;;;;;;5021696;28;20443;-73
2021/05/29 01:12:06;;;;;;;4.63;3.97;;;17.00;95.90;;;;;;5023517;28;20431;-72
2021/05/29 01:14:33;;;;;;;4.87;4.47;;;16.90;96.20;;;;;;5020757;28;21150;-73
2021/05/29 01:17:01;;;;;;;5.13;4.63;;;16.90;96.50;;;;;;5024988;28;20814;-73
2021/05/29 01:19:28;;;;;;;4.90;4.50;;;16.90;96.90;;;;;;5024280;28;20473;-72
2021/05/29 01:21:55;;;;;;;4.20;3.90;;;16.90;97.10;;;;;;5020353;28;20436;-72
2021/05/29 01:24:23;;;;;;;4.93;4.53;;;16.80;97.30;;;;;;5024832;28;20458;-73
2021/05/29 01:26:50;;;;;;;3.93;3.63;;;16.80;97.60;;;;;;5023851;28;20488;-72
2021/05/29 01:29:17;;;;;;;4.50;4.10;;;16.80;97.90;;;;;;5023453;28;20471;-72
2021/05/29 01:31:47;;;;;;;4.70;4.30;;;16.80;98.20;;;;;;5022332;28;20525;-72
2021/05/29 01:34:14;;;;;;;4.47;4.07;;;16.80;98.40;;;;;;5021749;28;20720;-72
2021/05/29 01:36:41;;;;;;;4.40;4.00;;;16.80;98.70;;;;;;5026122;28;20451;-72
2021/05/29 01:39:09;;;;;;;4.90;4.50;;;16.80;99.00;;;;;;5025072;28;21057;-74
2021/05/29 01:41:35;;;;;;;6.00;4.53;;;16.70;99.10;;;;;;5022618;28;20447;-72
2021/05/29 01:44:01;;;;;;;6.00;5.40;;;16.70;99.30;;;;;;5022601;28;21154;-72
2021/05/29 01:46:27;;;;;;;11.50;5.27;;;16.70;99.50;;;;;;5023488;28;20505;-72
2021/05/29 01:48:52;;;;;;;6.17;5.27;;;16.70;99.50;;;;;;5023592;28;20470;-72
2021/05/29 01:51:21;;;;;;;6.50;4.70;;;16.70;99.80;;;;;;5024170;28;20278;-73
2021/05/29 01:53:47;;;;;;;6.13;5.10;;;16.70;99.90;;;;;;5021261;28;20751;-73
2021/05/29 01:56:13;;;;;;;5.13;4.63;;;16.70;99.90;;;;;;5022047;28;20522;-73
2021/05/29 01:58:41;;;;;;;6.37;5.03;;;16.70;99.90;;;;;;5029479;28;20466;-73
2021/05/29 02:01:08;;;;;;;4.67;3.93;;;16.60;99.90;;;;;;5026639;28;20462;-73
2021/05/29 02:03:35;;;;;;;5.10;4.60;;;16.50;99.90;;;;;;5026514;28;20851;-74
2021/05/29 02:06:02;;;;;;;4.63;4.23;;;16.50;99.90;;;;;;5029730;28;20470;-74
2021/05/29 02:08:28;;;;;;;4.43;4.03;;;16.50;99.90;;;;;;5026636;28;20443;-73
2021/05/29 02:10:54;;;;;;;7.53;4.53;;;16.50;99.90;;;;;;5024554;28;20454;-73
2021/05/29 02:13:29;;;;;;;4.00;3.70;;;16.50;99.90;;;;;;5028679;28;20668;-73
2021/05/29 02:15:55;;;;;;;4.27;3.87;;;16.40;99.90;;;;;;5027006;28;20476;-74
2021/05/29 02:18:20;;;;;;;4.00;3.70;;;16.40;99.90;;;;;;5024593;28;20470;-73
2021/05/29 02:20:53;;;;;;;4.27;3.87;;;16.40;99.90;;;;;;5026257;28;20860;-73
2021/05/29 02:23:27;;;;;;;6.03;4.60;;;16.30;99.90;;;;;;5027890;28;20189;-74
2021/05/29 02:25:55;;;;;;;4.63;4.23;;;16.30;99.90;;;;;;5018732;28;21305;-74
2021/05/29 02:28:21;;;;;;;4.97;4.27;;;16.20;99.90;;;;;;5025929;28;20530;-73
2021/05/29 02:30:48;;;;;;;6.50;4.00;;;16.20;99.90;;;;;;5027924;28;20849;-74
2021/05/29 02:33:14;;;;;;;4.43;4.03;;;16.20;99.90;;;;;;5025717;28;20439;-73
2021/05/29 02:35:40;;;;;;;4.93;4.33;;;16.10;99.90;;;;;;5024874;28;20532;-74
2021/05/29 02:38:07;;;;;;;5.40;4.93;;;16.00;99.90;;;;;;5026499;28;20570;-73
2021/05/29 02:40:33;;;;;;;4.43;4.03;;;16.00;99.90;;;;;;5028122;28;20184;-73
2021/05/29 02:42:59;;;;;;;4.97;4.50;;;15.90;99.90;;;;;;5024628;28;20522;-73
2021/05/29 02:45:26;;;;;;;4.90;4.50;;;15.90;99.90;;;;;;5025418;28;20439;-73
2021/05/29 02:47:53;;;;;;;4.90;4.40;;;15.90;99.90;;;;;;5026877;28;20533;-73
2021/05/29 02:50:18;;;;;;;5.00;4.60;;;15.80;99.90;;;;;;5021595;28;20443;-73
2021/05/29 02:52:44;;;;;;;4.47;4.07;;;15.80;99.90;;;;;;5023400;28;20983;-74
2021/05/29 02:55:12;;;;;;;4.60;4.20;;;15.80;99.90;;;;;;5026229;28;20204;-74
2021/05/29 02:57:38;;;;;;;4.80;4.40;;;15.80;99.90;;;;;;5024508;28;20252;-73
2021/05/29 03:00:10;;;;;;;4.70;4.30;;;15.80;99.90;;;;;;5027143;28;20572;-73
2021/05/29 03:02:36;;;;;;;4.93;4.27;;;15.80;99.90;;;;;;5024437;28;20192;-73
2021/05/29 03:05:03;;;;;;;4.97;4.57;;;15.80;99.90;;;;;;5025884;28;20423;-73
2021/05/29 03:07:28;;;;;;;5.30;4.43;;;15.80;99.90;;;;;;5025220;28;20451;-74
2021/05/29 03:09:54;;;;;;;5.00;4.60;;;15.80;99.90;;;;;;5027643;28;20445;-73
2021/05/29 03:12:20;;;;;;;5.30;4.80;;;15.80;99.90;;;;;;5024454;28;20184;-73
2021/05/29 03:14:45;;;;;;;4.97;4.47;;;15.70;99.90;;;;;;5021937;28;20197;-74
2021/05/29 03:17:11;;;;;;;4.50;4.03;;;15.70;99.90;;;;;;5025781;28;20459;-74
2021/05/29 03:19:37;;;;;;;7.20;4.60;;;15.70;99.90;;;;;;5026317;28;20783;-74
2021/05/29 03:22:03;;;;;;;5.87;4.73;;;15.70;99.90;;;;;;5027215;28;20250;-73
2021/05/29 03:24:28;;;;;;;5.60;4.13;;;15.70;99.90;;;;;;5023850;28;20188;-74
2021/05/29 03:26:54;;;;;;;6.37;4.60;;;15.70;99.90;;;;;;5024113;28;20463;-73
2021/05/29 03:29:19;;;;;;;6.83;4.43;;;15.70;99.90;;;;;;5023484;28;20631;-74
2021/05/29 03:31:45;;;;;;;4.43;4.03;;;15.70;99.90;;;;;;5024421;28;20188;-73
2021/05/29 03:34:11;;;;;;;4.63;4.33;;;15.70;99.90;;;;;;5023866;28;20659;-73
2021/05/29 03:36:36;;;;;;;4.43;4.03;;;15.60;99.90;;;;;;5023444;28;21127;-73
2021/05/29 03:39:04;;;;;;;5.30;4.10;;;15.60;99.90;;;;;;5024719;28;20220;-73
2021/05/29 03:41:30;;;;;;;4.87;4.47;;;15.60;99.90;;;;;;5023023;28;20710;-73
2021/05/29 03:43:55;;;;;;;4.70;4.30;;;15.60;99.90;;;;;;5025871;28;20436;-74
2021/05/29 03:46:21;;;;;;;4.90;3.90;;;15.60;99.90;;;;;;5025101;28;20231;-73
2021/05/29 03:48:46;;;;;;;4.37;3.97;;;15.60;99.90;;;;;;5023806;28;20577;-74
2021/05/29 03:51:13;;;;;;;4.33;3.80;;;15.60;99.90;;;;;;5021358;28;20674;-74
2021/05/29 03:53:38;;;;;;;4.47;4.00;;;15.50;99.90;;;;;;5023946;28;20593;-73
2021/05/29 03:56:04;;;;;;;4.40;4.00;;;15.50;99.90;;;;;;5024619;28;20449;-73
2021/05/29 03:58:31;;;;;;;5.17;4.20;;;15.50;99.90;;;;;;5023430;28;20284;-73
2021/05/29 04:00:57;;;;;;;4.50;4.10;;;15.50;99.90;;;;;;5022998;28;20427;-74
2021/05/29 04:03:23;;;;;;;4.50;4.10;;;15.50;99.90;;;;;;5010020;28;21304;-74
2021/05/29 04:05:48;;;;;;;4.23;3.83;;;15.50;99.90;;;;;;5023933;28;20435;-74
2021/05/29 04:08:14;;;;;;;4.33;3.93;;;15.50;99.90;;;;;;5022952;28;20216;-73
2021/05/29 04:10:40;;;;;;;4.60;4.13;;;15.50;99.90;;;;;;5024307;28;20196;-73
2021/05/29 04:13:05;;;;;;;4.90;4.20;;;15.50;99.90;;;;;;5024806;28;20593;-73
2021/05/29 04:15:31;;;;;;;4.80;4.40;;;15.50;99.90;;;;;;5024377;28;20184;-74
2021/05/29 04:17:57;;;;;;;7.80;3.60;;;15.50;99.90;;;;;;5024283;28;20562;-73
2021/05/29 04:20:26;;;;;;;4.07;3.77;;;15.40;99.90;;;;;;5022867;28;20222;-73
2021/05/29 04:22:52;;;;;;;6.57;3.93;;;15.40;99.90;;;;;;5022850;28;21150;-74
2021/05/29 04:25:21;;;;;;;3.97;3.57;;;15.40;99.90;;;;;;5024485;28;20462;-73
2021/05/29 04:27:47;;;;;;;5.60;3.57;;;15.40;99.90;;;;;;5026672;28;20610;-74
2021/05/29 04:30:16;;;;;;;3.70;3.40;;;15.40;99.90;;;;;;5021399;28;21036;-73
2021/05/29 04:32:42;;;;;;;4.20;3.80;;;15.50;99.90;;;;;;5024623;28;20427;-73
2021/05/29 04:35:08;;;;;;;3.80;3.50;;;15.50;99.90;;;;;;5023485;28;20442;-74
2021/05/29 04:37:34;;;;;;;3.80;3.50;;;15.40;99.90;;;;;;5021418;28;20247;-73
2021/05/29 04:40:00;;;;;;;6.43;3.90;;;15.50;99.90;;;;;;5027193;28;20475;-73
2021/05/29 04:42:30;;;;;;;4.17;3.83;;;15.40;99.90;;;;;;5023015;28;20199;-73
2021/05/29 04:44:55;;;;;;;3.80;3.50;;;15.40;99.90;;;;;;5023257;28;20446;-73
2021/05/29 04:47:21;;;;;;;3.60;3.30;;;15.50;99.90;;;;;;4992065;28;20463;-72
2021/05/29 04:49:47;;;;;;;4.30;3.90;;;15.50;99.90;;;;;;5023270;28;20203;-73
2021/05/29 04:52:12;;;;;;;4.80;3.50;;;15.50;99.90;;;;;;5023232;28;20197;-73
2021/05/29 04:54:39;;;;;;;3.67;3.37;;;15.50;99.90;;;;;;5023768;28;20274;-72
2021/05/29 04:57:05;;;;;;;4.03;3.60;;;15.60;99.90;;;;;;5021230;28;20216;-73
2021/05/29 04:59:31;;;;;;;5.23;3.87;;;15.50;99.90;;;;;;5025407;28;20506;-73
2021/05/29 05:01:57;;;;;;;4.03;3.53;;;15.50;99.90;;;;;;5024969;28;20883;-73
2021/05/29 05:04:22;;;;;;;4.00;3.70;;;15.50;99.90;;;;;;5020870;28;21035;-74
2021/05/29 05:06:48;;;;;;;5.50;3.90;;;15.50;99.90;;;;;;5025836;28;20867;-73
2021/05/29 05:09:14;;;;;;;3.60;3.30;;;15.50;99.90;;;;;;5024163;28;20200;-73
2021/05/29 05:11:39;;;;;;;4.93;3.70;;;15.50;99.90;;;;;;5023293;28;20215;-73
2021/05/29 05:14:05;;;;;;;3.57;3.33;;;15.50;99.90;;;;;;5025228;28;20189;-73
2021/05/29 05:16:31;;;;;;;5.03;4.50;;;15.60;99.90;;;;;;5022604;28;20303;-73
2021/05/29 05:18:57;;;;;;;4.10;3.70;;;15.60;99.90;;;;;;5021960;28;20471;-73
2021/05/29 05:21:22;;;;;;;4.20;3.90;;;15.70;99.90;;;;;;5027640;28;20271;-73
2021/05/29 05:23:50;;;;;;;4.00;3.60;;;15.70;99.90;;;;;;5024103;28;20184;-73
2021/05/29 05:26:17;;;;;;;4.00;3.60;;;15.70;99.90;;;;;;5020752;28;20180;-73
2021/05/29 05:28:43;;;;;;;4.83;4.40;;;15.80;99.90;;;;;;5023184;28;20459;-72
2021/05/29 05:31:09;;;;;;;4.30;4.00;;;15.80;99.90;;;;;;5023161;28;20428;-73
2021/05/29 05:33:39;;;;;;;4.50;4.10;;;15.70;99.90;;;;;;5026967;28;21350;-73
2021/05/29 05:36:07;;;;;;;3.80;3.50;;;15.80;99.90;;;;;;5027525;28;20185;-73
2021/05/29 05:38:33;;;;;;;9.80;4.37;;;15.90;99.90;;;;;;5030069;28;20517;-72
2021/05/29 05:40:59;;;;;;;4.10;3.80;;;15.90;99.90;;;;;;5029235;28;21061;-73
2021/05/29 05:43:25;;;;;;;5.43;3.63;;;16.00;99.90;;;;;;5024696;28;20788;-73
2021/05/29 05:45:50;;;;;;;3.40;3.10;;;16.10;99.90;;;;;;5026383;28;20446;-74
2021/05/29 05:48:16;;;;;;;4.63;3.77;;;16.10;99.90;;;;;;5023724;28;20758;-73
2021/05/29 05:50:56;;;;;;;4.40;4.00;;;16.20;99.90;;;;;;5029202;28;20195;-74
2021/05/29 05:53:23;;;;;;;4.97;4.50;;;16.30;99.90;;;;;;5025131;28;20251;-74
2021/05/29 05:55:56;;;;;;;4.10;3.80;;;16.30;99.90;;;;;;5026520;28;21042;-74
2021/05/29 05:58:22;;;;;;;3.27;2.97;;;16.40;99.90;;;;;;5027274;28;20459;-73
2021/05/29 06:00:48;;;;;;;4.07;3.77;;;16.40;99.90;;;;;;5026387;28;20454;-73
2021/05/29 06:03:13;;;;;;;4.40;4.03;;;16.40;99.90;;;;;;5026590;28;20298;-73
2021/05/29 06:05:39;;;;;;;3.83;3.53;;;16.50;99.90;;;;;;5026751;28;20247;-73
2021/05/29 06:08:05;;;;;;;4.73;4.33;;;16.60;99.90;;;;;;5026010;28;20219;-73
2021/05/29 06:10:32;;;;;;;6.97;4.30;;;16.70;99.90;;;;;;5030384;28;20279;-73
2021/05/29 06:12:57;;;;;;;4.60;4.20;;;16.70;99.90;;;;;;5026990;28;20184;-73
2021/05/29 06:20:44;;;;;;;4.37;4.00;;;16.90;99.90;;;;;;5025970;28;20488;-73
2021/05/29 06:23:12;;;;;;;4.00;3.70;;;17.00;99.90;;;;;;5024900;28;20451;-73
2021/05/29 06:25:37;;;;;;;5.13;4.23;;;17.00;99.90;;;;;;5026801;28;20435;-73
2021/05/29 06:28:03;;;;;;;3.90;3.60;;;17.10;99.90;;;;;;5024423;28;20463;-73
2021/05/29 06:30:29;;;;;;;5.00;4.07;;;17.20;99.90;;;;;;5020694;28;20192;-73
2021/05/29 06:32:54;;;;;;;4.13;3.83;;;17.30;99.90;;;;;;5027237;28;20184;-73
2021/05/29 06:35:20;;;;;;;3.93;3.60;;;17.20;99.90;;;;;;5025633;28;20627;-73
2021/05/29 06:37:46;;;;;;;3.80;3.50;;;17.30;99.90;;;;;;5028799;28;20706;-73
2021/05/29 06:40:13;;;;;;;4.07;3.67;;;17.40;99.90;;;;;;5028422;28;20621;-73
2021/05/29 06:42:39;;;;;;;4.30;4.00;;;17.50;99.90;;;;;;5023604;28;20195;-73
2021/05/29 06:45:06;;;;;;;9.63;4.23;;;17.60;99.90;;;;;;5028745;28;20427;-73
2021/05/29 06:47:31;;;;;;;4.00;3.70;;;17.60;99.90;;;;;;5026494;28;20331;-74
2021/05/29 06:49:57;;;;;;;4.07;3.30;;;17.70;99.90;;;;;;5023482;28;20593;-73
2021/05/29 06:52:26;;;;;;;4.47;4.03;;;17.80;99.90;;;;;;5023353;28;20207;-73
2021/05/29 06:55:03;;;;;;;4.00;3.70;;;17.80;99.90;;;;;;5027980;28;20201;-73
2021/05/29 07:00:30;;;;;;;4.10;3.60;;;18.00;99.90;;;;;;5016684;28;20468;-73
2021/05/29 07:02:55;;;;;;;4.30;3.93;;;18.00;99.90;;;;;;5021370;28;20497;-73
2021/05/29 07:05:21;;;;;;;3.87;3.57;;;18.00;99.90;;;;;;5025672;28;20752;-73
2021/05/29 07:07:46;;;;;;;4.30;3.90;;;18.00;99.90;;;;;;5024293;28;20212;-73
2021/05/29 07:10:12;;;;;;;4.10;3.70;;;18.10;99.90;;;;;;5025936;28;20180;-73
2021/05/29 07:12:38;;;;;;;3.80;3.50;;;18.20;99.90;;;;;;5023790;28;20755;-72
2021/05/29 07:15:06;;;;;;;3.83;3.53;;;18.20;99.90;;;;;;5024190;28;20267;-72
2021/05/29 07:17:33;;;;;;;6.40;4.10;;;18.30;99.90;;;;;;5025745;28;20262;-73
2021/05/29 07:19:59;;;;;;;4.40;3.90;;;18.40;99.90;;;;;;5022510;28;20475;-72
2021/05/29 07:22:25;;;;;;;4.60;3.20;;;18.40;99.90;;;;;;5019746;28;20439;-73
2021/05/29 07:24:50;;;;;;;3.93;3.57;;;18.50;99.90;;;;;;5023652;28;20216;-73
2021/05/29 07:27:16;;;;;;;4.43;4.03;;;18.50;99.90;;;;;;5025767;28;20216;-73
2021/05/29 07:29:42;;;;;;;3.83;3.60;;;18.60;99.90;;;;;;5027600;28;20192;-74
2021/05/29 07:32:08;;;;;;;4.00;3.60;;;18.60;99.90;;;;;;5023457;28;20469;-73
2021/05/29 07:34:34;;;;;;;3.60;3.30;;;18.70;99.90;;;;;;5026498;28;20730;-73
2021/05/29 07:36:59;;;;;;;3.53;3.23;;;18.80;99.90;;;;;;5025849;28;20208;-74
2021/05/29 07:39:25;;;;;;;3.93;3.63;;;18.90;99.90;;;;;;5023604;28;20290;-73
2021/05/29 07:41:51;;;;;;;4.00;3.70;;;18.80;99.90;;;;;;5021407;28;20188;-74
2021/05/29 07:44:16;;;;;;;4.77;4.37;;;19.00;99.90;;;;;;5021572;28;20246;-73
2021/05/29 07:46:42;;;;;;;4.30;3.90;;;19.00;99.90;;;;;;5025382;28;20702;-73
2021/05/29 07:49:08;;;;;;;4.13;3.73;;;19.10;99.90;;;;;;5023086;28;20197;-73
2021/05/29 07:51:36;;;;;;;4.40;4.00;;;19.10;99.90;;;;;;5026072;28;20223;-73
2021/05/29 07:54:04;;;;;;;4.27;3.90;;;19.20;99.90;;;;;;5020711;28;20432;-73
2021/05/29 07:56:29;;;;;;;3.83;3.50;;;19.30;99.90;;;;;;5023066;28;20462;-73
2021/05/29 07:58:55;;;;;;;3.97;3.57;;;19.40;99.90;;;;;;5024931;28;20533;-73
2021/05/29 08:01:21;;;;;;;3.97;3.67;;;19.40;99.90;;;;;;5023701;28;20941;-73
2021/05/29 08:03:47;;;;;;;4.00;3.60;;;19.40;99.90;;;;;;5024128;28;20208;-73
2021/05/29 08:06:18;;;;;;;3.60;3.30;;;19.40;99.90;;;;;;5022353;28;20212;-73
2021/05/29 08:08:45;;;;;;;3.93;3.63;;;19.40;99.90;;;;;;5024307;28;20566;-73
2021/05/29 08:11:21;;;;;;;3.50;3.30;;;19.60;99.90;;;;;;5025002;28;20801;-73
2021/05/29 08:13:47;;;;;;;3.43;3.20;;;19.70;99.90;;;;;;5021971;28;20521;-73
2021/05/29 08:16:13;;;;;;;3.60;3.30;;;19.80;99.90;;;;;;5024452;28;20420;-73
2021/05/29 08:18:39;;;;;;;3.60;3.40;;;19.80;99.90;;;;;;5023247;28;20840;-72
2021/05/29 08:21:05;;;;;;;3.63;3.33;;;20.00;99.90;;;;;;5022481;28;20423;-73
2021/05/29 08:23:31;;;;;;;3.53;3.33;;;20.00;99.90;;;;;;5016945;28;20419;-73
2021/05/29 08:25:56;;;;;;;3.80;3.60;;;20.00;99.10;;;;;;5022529;28;20269;-73
2021/05/29 08:28:22;;;;;;;3.67;3.37;;;20.00;98.20;;;;;;5023371;28;20877;-73
2021/05/29 08:30:48;;;;;;;10.20;3.40;;;20.10;98.00;;;;;;5021939;28;20216;-73
2021/05/29 08:33:13;;;;;;;3.60;3.30;;;20.20;98.00;;;;;;5024720;28;20607;-73
2021/05/29 08:35:39;;;;;;;3.47;3.23;;;20.30;97.90;;;;;;5025366;28;20694;-74
2021/05/29 08:38:05;;;;;;;4.17;3.33;;;20.40;97.20;;;;;;5027477;28;20208;-73
2021/05/29 08:40:31;;;;;;;4.47;3.80;;;20.60;97.20;;;;;;5026423;28;20208;-73
2021/05/29 08:42:57;;;;;;;4.30;3.10;;;20.70;97.60;;;;;;5022958;28;20525;-73
2021/05/29 08:45:23;;;;;;;3.40;3.07;;;20.70;97.70;;;;;;5024289;28;20479;-73
2021/05/29 08:47:50;;;;;;;3.90;3.60;;;20.70;95.40;;;;;;5020088;28;20219;-73
2021/05/29 08:50:17;;;;;;;3.50;3.30;;;20.90;95.10;;;;;;5018539;28;20448;-74
2021/05/29 08:52:43;;;;;;;4.40;3.70;;;20.90;96.60;;;;;;5026351;28;20436;-74
2021/05/29 08:55:11;;;;;;;4.00;3.70;;;20.90;96.40;;;;;;5025077;28;21252;-74
2021/05/29 08:57:38;;;;;;;3.70;3.40;;;20.90;96.30;;;;;;5020550;28;20605;-73
2021/05/29 09:00:06;;;;;;;3.60;3.37;;;21.20;96.10;;;;;;5018999;28;20454;-73
2021/05/29 09:02:32;;;;;;;4.53;4.13;;;21.20;96.20;;;;;;5022054;28;20427;-73
2021/05/29 09:05:05;;;;;;;4.13;3.50;;;21.30;95.50;;;;;;5022940;28;21106;-73
2021/05/29 09:07:30;;;;;;;3.33;3.13;;;21.40;94.20;;;;;;5025327;28;20287;-73
2021/05/29 09:10:15;;;;;;;3.40;3.20;;;21.40;92.70;;;;;;5022890;28;20581;-73
2021/05/29 09:13:03;;;;;;;3.93;3.63;;;21.50;92.00;;;;;;5017120;28;20271;-74
2021/05/29 09:15:55;;;;;;;3.40;3.20;;;21.60;92.10;;;;;;5021587;28;20793;-74
2021/05/29 09:18:45;;;;;;;4.10;3.80;;;21.50;91.90;;;;;;5022828;28;20524;-73
2021/05/29 09:21:26;;;;;;;6.43;3.70;;;21.60;91.40;;;;;;5020194;28;20435;-74
2021/05/29 09:23:58;;;;;;;3.23;3.03;;;21.70;90.90;;;;;;5023668;28;20967;-73
2021/05/29 09:26:53;;;;;;;4.87;3.50;;;21.70;90.10;;;;;;5019472;28;21204;-74
2021/05/29 09:29:31;;;;;;;3.33;3.13;;;21.80;85.10;;;;;;5021744;28;20969;-75
2021/05/29 09:32:06;;;;;;;3.57;3.30;;;21.80;85.60;;;;;;5021237;28;20438;-74
2021/05/29 09:34:37;;;;;;;3.50;3.20;;;21.70;83.40;;;;;;5021279;28;20469;-74
2021/05/29 09:37:07;;;;;;;4.00;3.70;;;21.70;82.70;;;;;;5021669;28;20462;-74
2021/05/29 09:39:34;;;;;;;4.00;3.70;;;21.80;82.80;;;;;;5023070;28;20555;-74
2021/05/29 09:42:00;;;;;;;3.63;3.20;;;22.10;83.30;;;;;;5019145;28;20467;-74
2021/05/29 09:44:27;;;;;;;4.00;3.67;;;22.30;84.80;;;;;;5019654;28;20478;-74
2021/05/29 09:47:01;;;;;;;4.13;3.70;;;22.30;84.10;;;;;;5020591;28;20454;-75
2021/05/29 09:49:50;;;;;;;4.33;3.40;;;22.40;83.80;;;;;;5023481;28;20823;-75
2021/05/29 09:52:44;;;;;;;4.23;3.83;;;22.50;83.00;;;;;;5021542;28;20435;-75
2021/05/29 09:55:13;;;;;;;4.63;4.17;;;22.60;81.50;;;;;;5025411;28;20454;-75
2021/05/29 09:57:56;;;;;;;4.53;3.87;;;22.60;81.60;;;;;;5023511;28;21093;-75
2021/05/29 10:00:24;;;;;;;3.97;3.67;;;22.60;80.20;;;;;;5021821;28;20466;-74
2021/05/29 10:03:03;;;;;;;4.37;3.30;;;22.50;79.70;;;;;;5019553;28;20475;-75
2021/05/29 10:05:35;;;;;;;6.47;5.93;;;22.60;78.00;;;;;;5027737;28;20411;-75
2021/05/29 10:08:01;;;;;;;3.80;3.53;;;22.60;78.00;;;;;;5018696;28;20479;-74
2021/05/29 10:10:28;;;;;;;3.60;3.30;;;22.80;77.80;;;;;;5021869;28;20431;-71
2021/05/29 10:12:53;;;;;;;5.47;4.67;;;22.90;75.20;;;;;;5021203;28;20659;-73
2021/05/29 10:15:20;;;;;;;4.00;3.70;;;23.00;74.40;;;;;;5022240;28;20447;-73
2021/05/29 10:17:47;;;;;;;7.13;6.37;;;22.90;70.40;;;;;;5023614;28;20866;-73
2021/05/29 10:20:14;;;;;;;4.43;4.00;;;23.10;70.70;;;;;;5026584;28;20553;-73
2021/05/29 10:22:42;;;;;;;4.73;4.33;;;23.20;70.40;;;;;;5028043;28;20516;-73
2021/05/29 10:25:20;;;;;;;5.17;4.77;;;23.20;69.70;;;;;;5026188;28;20466;-73
2021/05/29 10:27:52;;;;;;;3.80;3.60;;;23.40;69.30;;;;;;5028515;28;20549;-73
2021/05/29 10:30:20;;;;;;;3.67;3.40;;;23.50;67.20;;;;;;5027620;28;20435;-73
2021/05/29 10:33:15;;;;;;;4.00;3.70;;;23.50;66.60;;;;;;5026478;28;20447;-73
2021/05/29 10:35:43;;;;;;;3.80;3.57;;;23.70;66.50;;;;;;5029468;28;20423;-74
2021/05/29 10:38:09;;;;;;;4.30;4.00;;;23.70;65.20;;;;;;5030296;28;20438;-73
2021/05/29 10:40:38;;;;;;;3.40;3.20;;;23.60;63.50;;;;;;5028668;28;20462;-74
2021/05/29 10:43:07;;;;;;;3.77;3.47;;;23.50;62.60;;;;;;5028416;28;20434;-74
2021/05/29 10:45:39;;;;;;;3.80;3.60;;;23.60;62.80;;;;;;5024192;28;20510;-74
2021/05/29 10:48:10;;;;;;;3.70;3.50;;;23.50;63.50;;;;;;5029750;28;20439;-74
2021/05/29 10:50:53;;;;;;;3.20;3.00;;;23.60;62.20;;;;;;5026637;28;20436;-73
2021/05/29 10:53:52;;;;;;;3.77;3.47;;;23.40;62.20;;;;;;5027171;28;20431;-74
2021/05/29 10:56:20;;;;;;;4.40;3.50;;;23.40;61.60;;;;;;5021743;28;21142;-74
2021/05/29 10:59:10;;;;;;;3.67;3.47;;;23.60;62.50;;;;;;5028041;28;20529;-74
2021/05/29 11:01:37;;;;;;;3.70;3.40;;;23.80;60.70;;;;;;5023266;28;20873;-74
2021/05/29 11:04:14;;;;;;;3.50;3.30;;;23.70;61.30;;;;;;5026637;28;20440;-76
2021/05/29 11:06:42;;;;;;;3.53;3.33;;;23.40;59.60;;;;;;5025300;28;20688;-74
2021/05/29 11:09:12;;;;;;;4.40;3.60;;;23.40;59.30;;;;;;5029100;28;20450;-73
2021/05/29 11:14:07;;;;;;;3.37;3.07;;;23.50;59.90;;;;;;5026627;28;20841;-76
2021/05/29 11:16:45;;;;;;;4.20;3.80;;;23.40;60.30;;;;;;5022338;28;20242;-75
2021/05/29 11:19:15;;;;;;;4.57;4.13;;;23.40;61.80;;;;;;5028745;28;20459;-71
2021/05/29 11:22:09;;;;;;;3.93;3.70;;;23.30;63.60;;;;;;5019385;28;20496;-74
2021/05/29 11:24:43;;;;;;;3.80;3.53;;;23.10;65.50;;;;;;5023061;28;21301;-74
2021/05/29 11:27:19;;;;;;;3.60;3.40;;;23.20;65.60;;;;;;5024930;28;20506;-74
2021/05/29 11:29:56;;;;;;;4.10;3.80;;;23.30;64.80;;;;;;5022804;28;21215;-74
2021/05/29 11:33:12;;;;;;;3.73;3.53;;;23.40;64.40;;;;;;5022402;28;20428;-75
2021/05/29 11:35:46;;;;;;;3.93;3.63;;;23.60;63.80;;;;;;5021518;28;20814;-75
2021/05/29 11:38:17;;;;;;;3.97;3.67;;;23.80;62.90;;;;;;5024454;28;20459;-75
2021/05/29 11:40:59;;;;;;;4.13;3.80;;;24.00;63.60;;;;;;5024546;28;20471;-73
2021/05/29 11:43:39;;;;;;;3.90;3.60;;;24.00;63.60;;;;;;5026545;28;20425;-75
2021/05/29 11:46:17;;;;;;;3.90;3.60;;;23.90;64.20;;;;;;5021868;28;20558;-75
2021/05/29 11:48:53;;;;;;;4.10;3.67;;;24.10;65.10;;;;;;5025912;28;20454;-75
2021/05/29 11:51:19;;;;;;;3.63;3.43;;;24.20;63.10;;;;;;5023986;28;20810;-75
2021/05/29 11:53:46;;;;;;;3.50;3.30;;;24.10;61.30;;;;;;5028846;28;20415;-74
2021/05/29 11:56:14;;;;;;;3.60;3.40;;;24.20;59.60;;;;;;5023589;28;21007;-76
2021/05/29 11:58:44;;;;;;;2.97;2.77;;;24.20;60.50;;;;;;5026076;28;20437;-74
2021/05/29 12:01:11;;;;;;;3.40;3.20;;;24.30;59.90;;;;;;5024234;28;20439;-75
2021/05/29 12:03:48;;;;;;;3.17;2.97;;;24.30;59.70;;;;;;5026515;28;20435;-75
2021/05/29 12:06:36;;;;;;;3.50;3.30;;;24.40;60.00;;;;;;5021228;28;21096;-73
2021/05/29 12:09:09;;;;;;;5.57;3.33;;;24.30;59.80;;;;;;5024553;28;20445;-74
2021/05/29 12:11:36;;;;;;;4.03;3.37;;;24.20;59.50;;;;;;5027108;28;20423;-75
2021/05/29 12:14:08;;;;;;;3.77;3.50;;;24.20;59.80;;;;;;5026088;28;20546;-75
2021/05/29 12:16:59;;;;;;;3.60;3.30;;;24.30;59.20;;;;;;5022917;28;20456;-75
2021/05/29 12:19:48;;;;;;;5.13;3.37;;;24.10;58.00;;;;;;5031431;28;20561;-75
2021/05/29 12:22:27;;;;;;;4.40;3.80;;;24.00;57.70;;;;;;5024952;28;20412;-75
2021/05/29 12:25:00;;;;;;;3.70;3.33;;;24.00;58.80;;;;;;5023468;28;20815;-76
2021/05/29 12:27:31;;;;;;;3.70;3.40;;;23.90;59.30;;;;;;5026686;28;20431;-76
2021/05/29 12:29:59;;;;;;;5.23;3.77;;;23.90;59.10;;;;;;5027242;28;20422;-75
2021/05/29 12:32:31;;;;;;;3.37;3.17;;;24.10;58.00;;;;;;5028847;28;20474;-76
2021/05/29 12:34:57;;;;;;;7.77;4.00;;;24.10;58.00;;;;;;5028850;28;20557;-75
2021/05/29 12:37:27;;;;;;;4.57;2.87;;;24.10;58.30;;;;;;5026472;28;20479;-75
2021/05/29 12:39:54;;;;;;;3.50;3.20;;;24.00;57.00;;;;;;5005645;28;20259;-75
2021/05/29 12:42:33;;;;;;;3.20;3.00;;;23.90;56.90;;;;;;5029701;28;20423;-75
2021/05/29 12:45:05;;;;;;;3.53;3.33;;;23.90;56.60;;;;;;5026322;28;20489;-75
2021/05/29 12:47:33;;;;;;;3.33;3.00;;;24.00;55.80;;;;;;5026623;28;20454;-75
2021/05/29 12:50:14;;;;;;;3.50;3.30;;;23.90;55.80;;;;;;5023243;28;20527;-75
2021/05/29 12:52:40;;;;;;;3.30;3.10;;;23.90;56.50;;;;;;5026952;28;20937;-75
2021/05/29 12:55:07;;;;;;;2.73;2.53;;;24.00;56.40;;;;;;5026380;28;20424;-76
2021/05/29 12:57:42;;;;;;;3.57;3.37;;;24.00;55.70;;;;;;5027026;28;20462;-75
2021/05/29 13:00:17;;;;;;;3.50;3.20;;;23.80;55.60;;;;;;5024724;28;20549;-75
2021/05/29 13:07:24;;;;;;;3.70;3.00;;;23.80;55.60;;;;;;5023953;28;20462;-75
2021/05/29 13:11:07;;;;;;;3.13;2.83;;;23.70;55.20;;;;;;5025140;28;20443;-75
2021/05/29 13:14:02;;;;;;;3.13;2.83;;;23.80;55.00;;;;;;5024899;28;20446;-74